sensor_id;sensor_type;location;lat;lon;timestamp;temperature;humidity
24452;DHT22;13350;50.984;5.822;2023-06-10T00:00:42;19.40;99.90
24452;DHT22;13350;50.984;5.822;2023-06-10T00:03:11;19.50;99.90
24452;DHT22;13350;50.984;5.822;2023-06-10T00:05:40;19.40;99.90
24452;DHT22;13350;50.984;5.822;2023-06-10T00:08:08;19.40;99.90
24452;DHT22;13350;50.984;5.822;2023-06-10T00:10:37;19.50;99.90
24452;DHT22;13350;50.984;5.822;2023-06-10T00:13:05;19.50;99.90
24452;DHT22;13350;50.984;5.822;2023-06-10T00:15:34;19.40;99.90
24452;DHT22;13350;50.984;5.822;2023-06-10T00:18:02;19.20;99.90
24452;DHT22;13350;50.984;5.822;2023-06-10T00:20:31;19.10;99.90
24452;DHT22;13350;50.984;5.822;2023-06-10T00:22:58;19.00;99.90
24452;DHT22;13350;50.984;5.822;2023-06-10T00:25:27;18.80;99.90
24452;DHT22;13350;50.984;5.822;2023-06-10T00:27:54;18.70;99.90
24452;DHT22;13350;50.984;5.822;2023-06-10T00:30:21;18.60;99.90
24452;DHT22;13350;50.984;5.822;2023-06-10T00:32:49;18.40;99.90
24452;DHT22;13350;50.984;5.822;2023-06-10T00:35:16;18.50;99.90
24452;DHT22;13350;50.984;5.822;2023-06-10T00:37:45;18.40;99.90
24452;DHT22;13350;50.984;5.822;2023-06-10T00:40:12;18.30;99.90
24452;DHT22;13350;50.984;5.822;2023-06-10T00:42:39;18.20;99.90
24452;DHT22;13350;50.984;5.822;2023-06-10T00:45:07;18.20;99.90
24452;DHT22;13350;50.984;5.822;2023-06-10T00:47:34;18.10;99.90
24452;DHT22;13350;50.984;5.822;2023-06-10T00:50:03;18.10;99.90
24452;DHT22;13350;50.984;5.822;2023-06-10T00:52:31;18.00;99.90
24452;DHT22;13350;50.984;5.822;2023-06-10T00:55:00;18.00;99.90
24452;DHT22;13350;50.984;5.822;2023-06-10T00:57:27;17.90;99.90
24452;DHT22;13350;50.984;5.822;2023-06-10T00:59:55;17.90;99.90
24452;DHT22;13350;50.984;5.822;2023-06-10T01:02:22;17.90;99.90
24452;DHT22;13350;50.984;5.822;2023-06-10T01:04:49;17.90;99.90
24452;DHT22;13350;50.984;5.822;2023-06-10T01:07:23;17.90;99.90
24452;DHT22;13350;50.984;5.822;2023-06-10T01:09:55;17.80;99.90
24452;DHT22;13350;50.984;5.822;2023-06-10T01:12:31;17.70;99.90
24452;DHT22;13350;50.984;5.822;2023-06-10T01:15:00;17.70;99.90
24452;DHT22;13350;50.984;5.822;2023-06-10T01:17:29;17.70;99.90
24452;DHT22;13350;50.984;5.822;2023-06-10T01:19:57;17.70;99.90
24452;DHT22;13350;50.984;5.822;2023-06-10T01:22:27;17.70;99.90
24452;DHT22;13350;50.984;5.822;2023-06-10T01:24:58;17.70;99.90
24452;DHT22;13350;50.984;5.822;2023-06-10T01:27:30;17.70;99.90
24452;DHT22;13350;50.984;5.822;2023-06-10T01:30:04;17.80;99.90
24452;DHT22;13350;50.984;5.822;2023-06-10T01:32:37;17.80;99.90
24452;DHT22;13350;50.984;5.822;2023-06-10T01:35:06;17.80;99.90
24452;DHT22;13350;50.984;5.822;2023-06-10T01:37:37;17.80;99.90
24452;DHT22;13350;50.984;5.822;2023-06-10T01:40:06;17.80;99.90
24452;DHT22;13350;50.984;5.822;2023-06-10T01:42:34;17.70;99.90
24452;DHT22;13350;50.984;5.822;2023-06-10T01:45:01;17.80;99.90
24452;DHT22;13350;50.984;5.822;2023-06-10T01:47:29;17.90;99.90
24452;DHT22;13350;50.984;5.822;2023-06-10T01:49:56;17.80;99.90
24452;DHT22;13350;50.984;5.822;2023-06-10T01:52:23;17.80;99.90
24452;DHT22;13350;50.984;5.822;2023-06-10T01:54:52;17.90;99.90
24452;DHT22;13350;50.984;5.822;2023-06-10T01:57:19;18.00;99.90
24452;DHT22;13350;50.984;5.822;2023-06-10T01:59:46;18.00;99.90
24452;DHT22;13350;50.984;5.822;2023-06-10T02:02:13;18.00;99.90
24452;DHT22;13350;50.984;5.822;2023-06-10T02:04:41;18.00;99.90
24452;DHT22;13350;50.984;5.822;2023-06-10T02:07:09;17.90;99.90
24452;DHT22;13350;50.984;5.822;2023-06-10T02:09:38;18.00;99.90
24452;DHT22;13350;50.984;5.822;2023-06-10T02:12:07;18.00;99.90
24452;DHT22;13350;50.984;5.822;2023-06-10T02:14:36;18.00;99.90
24452;DHT22;13350;50.984;5.822;2023-06-10T02:17:03;17.90;99.90
24452;DHT22;13350;50.984;5.822;2023-06-10T02:19:30;17.80;99.90
24452;DHT22;13350;50.984;5.822;2023-06-10T02:21:58;17.60;99.90
24452;DHT22;13350;50.984;5.822;2023-06-10T02:24:25;17.50;99.90
24452;DHT22;13350;50.984;5.822;2023-06-10T02:26:52;17.50;99.90
24452;DHT22;13350;50.984;5.822;2023-06-10T02:29:21;17.50;99.90
24452;DHT22;13350;50.984;5.822;2023-06-10T02:31:48;17.50;99.90
24452;DHT22;13350;50.984;5.822;2023-06-10T02:34:18;17.40;99.90
24452;DHT22;13350;50.984;5.822;2023-06-10T02:36:45;17.30;99.90
24452;DHT22;13350;50.984;5.822;2023-06-10T02:39:15;17.30;99.90
24452;DHT22;13350;50.984;5.822;2023-06-10T02:41:42;17.30;99.90
24452;DHT22;13350;50.984;5.822;2023-06-10T02:44:09;17.20;99.90
24452;DHT22;13350;50.984;5.822;2023-06-10T02:46:38;17.10;99.90
24452;DHT22;13350;50.984;5.822;2023-06-10T02:49:05;17.10;99.90
24452;DHT22;13350;50.984;5.822;2023-06-10T02:51:32;17.10;99.90
24452;DHT22;13350;50.984;5.822;2023-06-10T02:53:59;17.20;99.90
24452;DHT22;13350;50.984;5.822;2023-06-10T02:56:26;17.20;99.90
24452;DHT22;13350;50.984;5.822;2023-06-10T02:58:54;17.00;99.90
24452;DHT22;13350;50.984;5.822;2023-06-10T03:01:21;16.90;99.90
24452;DHT22;13350;50.984;5.822;2023-06-10T03:03:50;16.80;99.90
24452;DHT22;13350;50.984;5.822;2023-06-10T03:06:18;16.70;99.90
24452;DHT22;13350;50.984;5.822;2023-06-10T03:08:45;16.60;99.90
24452;DHT22;13350;50.984;5.822;2023-06-10T03:11:12;16.60;99.90
24452;DHT22;13350;50.984;5.822;2023-06-10T03:13:39;16.50;99.90
24452;DHT22;13350;50.984;5.822;2023-06-10T03:16:06;16.50;99.90
24452;DHT22;13350;50.984;5.822;2023-06-10T03:18:34;16.50;99.90
24452;DHT22;13350;50.984;5.822;2023-06-10T03:21:02;16.40;99.90
24452;DHT22;13350;50.984;5.822;2023-06-10T03:23:30;16.40;99.90
24452;DHT22;13350;50.984;5.822;2023-06-10T03:25:57;16.40;99.90
24452;DHT22;13350;50.984;5.822;2023-06-10T03:28:24;16.40;99.90
24452;DHT22;13350;50.984;5.822;2023-06-10T03:30:51;16.30;99.90
24452;DHT22;13350;50.984;5.822;2023-06-10T03:33:19;16.30;99.90
24452;DHT22;13350;50.984;5.822;2023-06-10T03:35:46;16.30;99.90
24452;DHT22;13350;50.984;5.822;2023-06-10T03:38:15;16.30;99.90
24452;DHT22;13350;50.984;5.822;2023-06-10T03:40:42;16.30;99.90
24452;DHT22;13350;50.984;5.822;2023-06-10T03:43:09;16.50;99.90
24452;DHT22;13350;50.984;5.822;2023-06-10T03:45:36;16.50;99.90
24452;DHT22;13350;50.984;5.822;2023-06-10T03:48:04;16.60;99.90
24452;DHT22;13350;50.984;5.822;2023-06-10T03:50:32;16.60;99.90
24452;DHT22;13350;50.984;5.822;2023-06-10T03:52:59;16.60;99.90
24452;DHT22;13350;50.984;5.822;2023-06-10T03:55:28;16.70;99.90
24452;DHT22;13350;50.984;5.822;2023-06-10T03:57:55;16.70;99.90
24452;DHT22;13350;50.984;5.822;2023-06-10T04:00:22;16.70;99.90
24452;DHT22;13350;50.984;5.822;2023-06-10T04:02:49;16.80;99.90
24452;DHT22;13350;50.984;5.822;2023-06-10T04:05:19;16.80;99.90
24452;DHT22;13350;50.984;5.822;2023-06-10T04:07:47;16.90;99.90
24452;DHT22;13350;50.984;5.822;2023-06-10T04:10:15;17.00;99.90
24452;DHT22;13350;50.984;5.822;2023-06-10T04:12:44;17.00;99.90
24452;DHT22;13350;50.984;5.822;2023-06-10T04:15:11;17.10;99.90
24452;DHT22;13350;50.984;5.822;2023-06-10T04:17:39;17.10;99.90
24452;DHT22;13350;50.984;5.822;2023-06-10T04:20:07;17.10;99.90
24452;DHT22;13350;50.984;5.822;2023-06-10T04:22:35;17.10;99.90
24452;DHT22;13350;50.984;5.822;2023-06-10T04:25:02;17.20;99.90
24452;DHT22;13350;50.984;5.822;2023-06-10T04:27:30;17.40;99.90
24452;DHT22;13350;50.984;5.822;2023-06-10T04:29:58;17.40;99.90
24452;DHT22;13350;50.984;5.822;2023-06-10T04:32:26;17.50;99.90
24452;DHT22;13350;50.984;5.822;2023-06-10T04:34:53;17.60;99.90
24452;DHT22;13350;50.984;5.822;2023-06-10T04:37:20;17.60;99.90
24452;DHT22;13350;50.984;5.822;2023-06-10T04:39:47;17.60;99.90
24452;DHT22;13350;50.984;5.822;2023-06-10T04:42:15;17.70;99.90
24452;DHT22;13350;50.984;5.822;2023-06-10T04:44:42;17.80;99.90
24452;DHT22;13350;50.984;5.822;2023-06-10T04:47:11;17.90;99.90
24452;DHT22;13350;50.984;5.822;2023-06-10T04:49:38;18.10;99.90
24452;DHT22;13350;50.984;5.822;2023-06-10T04:52:06;18.10;99.90
24452;DHT22;13350;50.984;5.822;2023-06-10T04:54:33;18.10;99.90
24452;DHT22;13350;50.984;5.822;2023-06-10T04:57:00;18.20;99.90
24452;DHT22;13350;50.984;5.822;2023-06-10T04:59:27;18.30;99.90
24452;DHT22;13350;50.984;5.822;2023-06-10T05:01:55;18.30;99.90
24452;DHT22;13350;50.984;5.822;2023-06-10T05:04:24;18.40;99.90
24452;DHT22;13350;50.984;5.822;2023-06-10T05:06:51;18.40;99.90
24452;DHT22;13350;50.984;5.822;2023-06-10T05:09:19;18.50;99.90
24452;DHT22;13350;50.984;5.822;2023-06-10T05:11:46;18.60;99.90
24452;DHT22;13350;50.984;5.822;2023-06-10T05:14:13;18.60;99.90
24452;DHT22;13350;50.984;5.822;2023-06-10T05:16:42;18.70;99.90
24452;DHT22;13350;50.984;5.822;2023-06-10T05:19:09;18.70;99.90
24452;DHT22;13350;50.984;5.822;2023-06-10T05:21:38;18.80;99.90
24452;DHT22;13350;50.984;5.822;2023-06-10T05:24:06;18.90;99.90
24452;DHT22;13350;50.984;5.822;2023-06-10T05:26:35;18.90;99.90
24452;DHT22;13350;50.984;5.822;2023-06-10T05:29:03;19.00;99.90
24452;DHT22;13350;50.984;5.822;2023-06-10T05:31:31;19.10;99.90
24452;DHT22;13350;50.984;5.822;2023-06-10T05:33:59;19.20;99.90
24452;DHT22;13350;50.984;5.822;2023-06-10T05:36:26;19.50;99.90
24452;DHT22;13350;50.984;5.822;2023-06-10T05:38:54;19.60;99.90
24452;DHT22;13350;50.984;5.822;2023-06-10T05:41:22;19.70;99.90
24452;DHT22;13350;50.984;5.822;2023-06-10T05:43:49;19.80;99.90
24452;DHT22;13350;50.984;5.822;2023-06-10T05:46:16;19.90;99.90
24452;DHT22;13350;50.984;5.822;2023-06-10T05:48:43;20.30;99.90
24452;DHT22;13350;50.984;5.822;2023-06-10T05:51:11;20.90;99.90
24452;DHT22;13350;50.984;5.822;2023-06-10T05:53:38;21.50;99.90
24452;DHT22;13350;50.984;5.822;2023-06-10T05:56:07;21.70;99.90
24452;DHT22;13350;50.984;5.822;2023-06-10T05:58:34;22.00;99.90
24452;DHT22;13350;50.984;5.822;2023-06-10T06:01:01;22.30;99.90
24452;DHT22;13350;50.984;5.822;2023-06-10T06:03:29;22.70;99.90
24452;DHT22;13350;50.984;5.822;2023-06-10T06:05:56;22.80;99.90
24452;DHT22;13350;50.984;5.822;2023-06-10T06:08:23;22.70;99.90
24452;DHT22;13350;50.984;5.822;2023-06-10T06:10:50;22.80;99.90
24452;DHT22;13350;50.984;5.822;2023-06-10T06:13:19;23.10;99.90
24452;DHT22;13350;50.984;5.822;2023-06-10T06:15:46;23.20;99.90
24452;DHT22;13350;50.984;5.822;2023-06-10T06:18:13;23.60;99.90
24452;DHT22;13350;50.984;5.822;2023-06-10T06:20:41;23.90;99.90
24452;DHT22;13350;50.984;5.822;2023-06-10T06:23:08;24.10;99.90
24452;DHT22;13350;50.984;5.822;2023-06-10T06:25:36;24.40;99.90
24452;DHT22;13350;50.984;5.822;2023-06-10T06:28:05;24.50;99.90
24452;DHT22;13350;50.984;5.822;2023-06-10T06:30:34;24.50;99.90
24452;DHT22;13350;50.984;5.822;2023-06-10T06:33:10;24.40;99.90
